createdAt,value
2019-05-20T00:02:24.716Z,20.13
2019-05-20T00:07:23.630Z,20.07
2019-05-20T00:12:25.717Z,20.16
2019-05-20T00:17:27.850Z,20.10
2019-05-20T00:22:29.954Z,20.06
2019-05-20T00:27:32.054Z,20.01
2019-05-20T00:32:40.989Z,20.01
2019-05-20T00:37:38.623Z,20.07
2019-05-20T00:42:40.800Z,20.04
2019-05-20T00:47:42.854Z,20.16
2019-05-20T00:52:44.919Z,20.18
2019-05-20T00:57:47.091Z,20.25
2019-05-20T01:02:56.414Z,20.17
2019-05-20T01:07:53.197Z,20.24
2019-05-20T01:12:55.346Z,20.24
2019-05-20T01:17:57.469Z,20.23
2019-05-20T01:22:59.653Z,20.19
2019-05-20T01:28:01.713Z,20.19
2019-05-20T01:33:13.209Z,20.17
2019-05-20T01:38:07.724Z,20.05
2019-05-20T01:43:09.817Z,19.99
2019-05-20T01:48:11.897Z,19.98
2019-05-20T01:53:13.951Z,19.93
2019-05-20T01:58:16.016Z,19.88
2019-05-20T02:03:30.931Z,19.85
2019-05-20T02:08:22.086Z,19.83
2019-05-20T02:13:26.630Z,19.76
2019-05-20T02:18:28.717Z,19.71
2019-05-20T02:23:30.755Z,19.67
2019-05-20T02:28:32.857Z,19.59
2019-05-20T02:33:51.063Z,19.48
2019-05-20T02:38:38.980Z,19.40
2019-05-20T02:43:41.032Z,19.24
2019-05-20T02:48:43.117Z,19.13
2019-05-20T02:53:45.175Z,19.07
2019-05-20T02:58:47.322Z,18.95
2019-05-20T03:03:49.422Z,18.82
2019-05-20T03:08:51.529Z,18.74
2019-05-20T03:13:53.618Z,18.69
2019-05-20T03:18:55.716Z,18.55
2019-05-20T03:23:59.022Z,18.44
2019-05-20T03:29:01.946Z,18.37
2019-05-20T03:34:04.322Z,18.38
2019-05-20T03:39:06.495Z,18.39
2019-05-20T03:44:08.626Z,18.35
2019-05-20T03:49:10.716Z,18.35
2019-05-20T03:54:12.803Z,18.29
2019-05-20T03:59:14.980Z,18.27
2019-05-20T04:04:18.402Z,18.24
2019-05-20T04:09:20.535Z,18.18
2019-05-20T04:14:22.624Z,18.21
2019-05-20T04:19:24.807Z,18.21
2019-05-20T04:24:27.150Z,18.32
2019-05-20T04:29:31.069Z,18.38
2019-05-20T04:34:33.237Z,18.42
2019-05-20T04:39:35.430Z,18.52
2019-05-20T04:44:39.817Z,18.71
2019-05-20T04:56:48.811Z,19.07
2019-05-20T05:01:51.129Z,19.72
2019-05-20T05:06:55.077Z,21.49
2019-05-20T05:11:57.189Z,21.86
2019-05-20T05:16:59.873Z,22.11
2019-05-20T05:22:02.059Z,23.38
2019-05-20T05:27:04.853Z,23.51
2019-05-20T05:32:06.978Z,22.62
2019-05-20T05:37:09.055Z,22.73
2019-05-20T05:42:11.128Z,22.97
2019-05-20T05:47:13.252Z,24.24
2019-05-20T05:52:15.347Z,26.68
2019-05-20T05:57:17.410Z,25.35
2019-05-20T06:02:22.340Z,25.86
2019-05-20T06:07:24.446Z,27.13
2019-05-20T06:12:26.424Z,28.07
2019-05-20T06:17:28.817Z,27.36
2019-05-20T06:22:32.612Z,26.73
2019-05-20T06:27:34.903Z,26.56
2019-05-20T06:32:37.123Z,25.53
2019-05-20T06:37:42.676Z,25.32
2019-05-20T06:42:44.704Z,25.17
2019-05-20T06:47:46.792Z,24.81
2019-05-20T06:52:49.296Z,24.78
2019-05-20T06:57:51.360Z,25.50
2019-05-20T07:02:53.465Z,25.09
2019-05-20T07:07:55.497Z,24.80
2019-05-20T07:12:57.619Z,24.44
2019-05-20T07:17:59.688Z,24.35
2019-05-20T07:23:04.137Z,24.32
2019-05-20T07:28:06.233Z,24.83
2019-05-20T07:33:08.336Z,25.77
2019-05-20T07:38:19.147Z,26.00
2019-05-20T07:43:24.486Z,25.92
2019-05-20T07:48:27.586Z,26.06
2019-05-20T07:53:31.018Z,26.26
2019-05-20T07:58:35.890Z,26.39
2019-05-20T08:03:38.809Z,26.51
2019-05-20T08:08:43.411Z,26.49
2019-05-20T08:13:45.566Z,26.31
2019-05-20T08:18:47.779Z,26.30
2019-05-20T08:23:50.383Z,26.27
2019-05-20T08:28:52.676Z,26.27
2019-05-20T08:33:54.893Z,26.31
2019-05-20T08:38:57.027Z,26.42
2019-05-20T08:43:59.132Z,26.35
2019-05-20T08:49:01.265Z,26.39
2019-05-20T08:54:19.816Z,26.43
2019-05-20T08:59:21.958Z,26.51
2019-05-20T09:04:24.031Z,26.56
2019-05-20T09:09:26.179Z,26.40
2019-05-20T09:14:28.714Z,26.23
2019-05-20T09:19:30.924Z,26.28
2019-05-20T09:24:34.856Z,26.27
2019-05-20T09:29:38.156Z,26.33
2019-05-20T09:34:40.950Z,26.45
2019-05-20T09:39:43.049Z,26.40
2019-05-20T09:44:45.123Z,26.38
2019-05-20T09:49:47.199Z,26.30
2019-05-20T09:54:49.305Z,26.07
2019-05-20T09:59:51.373Z,25.99
2019-05-20T10:04:53.579Z,25.97
2019-05-20T10:09:55.688Z,25.78
2019-05-20T10:14:57.898Z,25.71
2019-05-20T10:20:01.203Z,25.64
2019-05-20T10:25:03.875Z,25.61
2019-05-20T10:30:06.702Z,25.59
2019-05-20T10:35:09.497Z,25.58
2019-05-20T10:40:11.992Z,25.63
2019-05-20T10:45:14.456Z,25.68
2019-05-20T10:50:16.843Z,25.62
2019-05-20T10:55:19.287Z,25.60
2019-05-20T11:00:21.576Z,25.62
2019-05-20T11:05:23.630Z,25.44
2019-05-20T11:10:25.797Z,25.46
2019-05-20T11:15:27.887Z,25.58
2019-05-20T11:20:30.010Z,25.66
2019-05-20T11:25:32.128Z,25.59
2019-05-20T11:30:34.189Z,25.51
2019-05-20T11:35:36.264Z,25.46
2019-05-20T11:40:38.329Z,25.17
2019-05-20T11:45:40.444Z,25.21
2019-05-20T11:50:42.663Z,25.24
2019-05-20T11:55:44.707Z,25.15
2019-05-20T12:00:46.750Z,25.05
2019-05-20T12:05:48.875Z,24.97
2019-05-20T12:10:51.039Z,24.79
2019-05-20T12:15:53.084Z,24.65
2019-05-20T12:20:55.175Z,24.53
2019-05-20T12:25:57.265Z,24.58
2019-05-20T12:30:59.420Z,24.39
2019-05-20T12:36:01.501Z,24.42
2019-05-20T12:41:03.544Z,24.33
2019-05-20T12:46:05.640Z,24.25
2019-05-20T12:51:07.788Z,24.21
2019-05-20T12:56:09.879Z,23.97
2019-05-20T13:01:11.981Z,23.98
2019-05-20T13:06:14.026Z,23.95
2019-05-20T13:11:16.127Z,23.70
2019-05-20T13:16:18.221Z,23.64
2019-05-20T13:21:20.257Z,23.70
2019-05-20T13:26:22.353Z,23.90
2019-05-20T13:31:24.568Z,24.11
2019-05-20T13:36:26.631Z,24.12
2019-05-20T13:41:29.123Z,24.16
2019-05-20T13:46:33.613Z,24.01
2019-05-20T13:51:38.569Z,23.67
2019-05-20T13:56:40.240Z,23.59
2019-05-20T14:01:43.997Z,23.53
2019-05-20T14:06:46.112Z,23.51
2019-05-20T14:11:48.228Z,23.55
2019-05-20T14:16:50.330Z,23.43
2019-05-20T14:21:52.402Z,23.27
2019-05-20T14:26:54.637Z,23.23
2019-05-20T14:31:56.805Z,23.13
2019-05-20T14:36:58.898Z,23.28
2019-05-20T14:42:01.064Z,23.44
2019-05-20T14:47:03.310Z,23.42
2019-05-20T14:52:05.461Z,23.48
2019-05-20T14:57:07.538Z,23.52
2019-05-20T15:02:09.842Z,23.58
2019-05-20T15:07:12.065Z,23.59
2019-05-20T15:12:14.210Z,23.52
2019-05-20T15:17:16.276Z,23.38
2019-05-20T15:22:18.430Z,23.47
2019-05-20T15:27:20.518Z,23.44
2019-05-20T15:32:22.643Z,23.53
2019-05-20T15:37:26.943Z,23.63
2019-05-20T15:42:30.483Z,23.71
2019-05-20T15:47:32.543Z,23.72
2019-05-20T15:52:34.702Z,23.65
2019-05-20T15:57:36.761Z,23.67
2019-05-20T16:02:38.862Z,23.64
2019-05-20T16:07:40.991Z,23.64
2019-05-20T16:12:43.634Z,23.65
2019-05-20T16:23:01.307Z,23.54
2019-05-20T16:28:03.560Z,23.49
2019-05-20T16:33:05.666Z,23.49
2019-05-20T16:38:07.834Z,23.51
2019-05-20T16:43:09.959Z,23.49
2019-05-20T16:48:12.284Z,23.52
2019-05-20T16:53:14.515Z,23.52
2019-05-20T16:58:18.911Z,23.51
2019-05-20T17:03:20.991Z,23.49
2019-05-20T17:08:24.629Z,23.45
2019-05-20T17:13:30.201Z,23.39
2019-05-20T17:18:32.260Z,23.32
2019-05-20T17:23:34.341Z,23.08
2019-05-20T17:28:36.527Z,22.89
2019-05-20T17:33:38.703Z,22.55
2019-05-20T17:38:43.190Z,22.32
2019-05-20T17:43:45.441Z,22.11
2019-05-20T17:48:47.516Z,21.96
2019-05-20T17:53:49.810Z,21.85
2019-05-20T17:58:51.932Z,21.84
2019-05-20T18:03:54.061Z,21.80
2019-05-20T18:08:58.120Z,21.78
2019-05-20T18:14:01.191Z,21.73
2019-05-20T18:19:03.425Z,21.57
2019-05-20T18:24:05.468Z,21.40
2019-05-20T18:29:07.637Z,21.45
2019-05-20T18:34:09.763Z,21.40
2019-05-20T18:39:11.813Z,21.21
2019-05-20T18:44:13.909Z,21.11
2019-05-20T18:49:16.024Z,20.99
2019-05-20T18:54:18.095Z,20.89
2019-05-20T18:59:20.181Z,20.77
2019-05-20T19:04:22.297Z,20.70
2019-05-20T19:09:27.797Z,20.71
2019-05-20T19:14:30.010Z,20.63
2019-05-20T19:19:36.531Z,20.53
2019-05-20T19:24:39.599Z,20.42
2019-05-20T19:29:44.471Z,20.34
2019-05-20T19:34:56.028Z,20.37
2019-05-20T19:39:58.099Z,20.26
2019-05-20T19:45:00.244Z,20.30
2019-05-20T19:50:10.677Z,20.32
2019-05-20T19:55:22.299Z,20.32
2019-05-20T20:00:35.624Z,20.37
2019-05-20T20:05:44.599Z,20.39
2019-05-20T20:10:47.958Z,20.41
2019-05-20T20:15:58.599Z,20.36
2019-05-20T20:21:38.155Z,20.37
2019-05-20T20:26:52.688Z,20.34
2019-05-20T20:31:52.443Z,20.27
2019-05-20T20:36:54.612Z,20.25
2019-05-20T20:41:56.664Z,20.23
2019-05-20T20:47:01.134Z,20.18
2019-05-20T20:52:10.606Z,20.10
2019-05-20T20:57:12.775Z,20.15
2019-05-20T21:02:14.975Z,20.13
2019-05-20T21:07:17.166Z,20.12
2019-05-20T21:12:19.234Z,20.16
2019-05-20T21:17:21.284Z,20.12
2019-05-20T21:22:23.398Z,20.16
2019-05-20T21:27:25.492Z,20.13
2019-05-20T21:32:27.624Z,20.10
2019-05-20T21:37:29.747Z,20.13
2019-05-20T21:42:31.818Z,20.09
2019-05-20T21:47:34.018Z,20.06
2019-05-20T21:52:36.115Z,20.02
2019-05-20T21:57:38.288Z,19.97
2019-05-20T22:02:40.356Z,19.88
2019-05-20T22:07:42.407Z,19.75
2019-05-20T22:12:44.571Z,19.73
2019-05-20T22:17:46.642Z,19.68
2019-05-20T22:23:08.360Z,19.51
2019-05-20T22:28:12.903Z,19.43
2019-05-20T22:33:14.446Z,19.20
2019-05-20T22:38:16.537Z,19.01
2019-05-20T22:43:18.632Z,18.92
2019-05-20T22:48:20.676Z,18.76
2019-05-20T22:53:22.815Z,18.72
2019-05-20T22:58:24.885Z,18.59
2019-05-20T23:03:26.976Z,18.42
2019-05-20T23:08:29.101Z,18.54
2019-05-20T23:13:31.264Z,18.49
2019-05-20T23:18:33.617Z,18.42
2019-05-20T23:23:35.678Z,18.49
2019-05-20T23:28:37.746Z,18.45
2019-05-20T23:33:39.848Z,18.36
2019-05-20T23:38:41.919Z,18.21
2019-05-20T23:43:44.065Z,18.09
2019-05-20T23:48:46.150Z,18.09
2019-05-20T23:53:48.194Z,18.09
2019-05-20T23:58:50.271Z,18.09
